createdAt,value
2018-10-16T00:00:38.692Z,17.48
2018-10-16T00:01:38.697Z,17.32
2018-10-16T00:02:38.740Z,17.41
2018-10-16T00:03:38.758Z,17.30
2018-10-16T00:04:38.774Z,17.25
2018-10-16T00:05:38.783Z,17.11
2018-10-16T00:06:38.808Z,16.81
2018-10-16T00:07:38.826Z,16.80
2018-10-16T00:08:38.847Z,16.70
2018-10-16T00:09:38.871Z,16.58
2018-10-16T00:10:38.898Z,16.52
2018-10-16T00:11:38.937Z,16.70
2018-10-16T00:12:38.933Z,16.80
2018-10-16T00:13:38.965Z,16.95
2018-10-16T00:14:39.022Z,16.98
2018-10-16T00:15:39.003Z,17.00
2018-10-16T00:16:39.029Z,16.98
2018-10-16T00:17:39.045Z,17.18
2018-10-16T00:18:39.065Z,16.93
2018-10-16T00:19:39.088Z,17.03
2018-10-16T00:20:39.112Z,17.18
2018-10-16T00:21:39.122Z,17.25
2018-10-16T00:22:39.159Z,17.29
2018-10-16T00:23:39.176Z,17.51
2018-10-16T00:24:39.195Z,17.38
2018-10-16T00:25:39.266Z,17.30
2018-10-16T00:26:39.241Z,17.32
2018-10-16T00:27:39.261Z,17.36
2018-10-16T00:28:39.295Z,17.18
2018-10-16T00:29:39.304Z,17.14
2018-10-16T00:30:39.321Z,16.93
2018-10-16T00:31:39.341Z,16.88
2018-10-16T00:32:39.409Z,16.96
2018-10-16T00:33:39.394Z,17.00
2018-10-16T00:34:39.407Z,17.30
2018-10-16T00:35:39.422Z,17.33
2018-10-16T00:36:39.442Z,17.32
2018-10-16T00:37:39.472Z,17.33
2018-10-16T00:38:39.547Z,17.57
2018-10-16T00:39:39.511Z,17.62
2018-10-16T00:40:39.536Z,17.43
2018-10-16T00:41:39.554Z,17.54
2018-10-16T00:42:39.575Z,17.71
2018-10-16T00:43:39.592Z,17.50
2018-10-16T00:44:39.621Z,17.44
2018-10-16T00:45:39.633Z,17.30
2018-10-16T00:46:39.677Z,17.15
2018-10-16T00:47:39.685Z,17.28
2018-10-16T00:48:39.707Z,17.46
2018-10-16T00:49:39.836Z,17.63
2018-10-16T00:50:39.744Z,17.44
2018-10-16T00:51:39.767Z,17.59
2018-10-16T00:52:39.799Z,17.40
2018-10-16T00:53:39.801Z,17.35
2018-10-16T00:54:39.844Z,17.14
2018-10-16T00:55:39.861Z,17.07
2018-10-16T00:56:39.867Z,17.38
2018-10-16T00:57:39.897Z,17.51
2018-10-16T00:58:39.928Z,17.64
2018-10-16T00:59:39.942Z,17.41
2018-10-16T01:00:39.950Z,16.99
2018-10-16T01:01:39.983Z,16.95
2018-10-16T01:02:40.017Z,16.96
2018-10-16T01:03:40.025Z,16.86
2018-10-16T01:04:40.039Z,16.90
2018-10-16T01:05:40.061Z,16.70
2018-10-16T01:06:40.088Z,16.93
2018-10-16T01:08:40.124Z,17.11
2018-10-16T01:09:40.153Z,17.08
2018-10-16T01:10:40.166Z,16.78
2018-10-16T01:11:40.186Z,16.60
2018-10-16T01:12:40.212Z,16.95
2018-10-16T01:13:40.233Z,17.15
2018-10-16T01:14:40.254Z,17.26
2018-10-16T01:15:40.272Z,17.30
2018-10-16T01:16:40.288Z,17.38
2018-10-16T01:17:40.334Z,17.07
2018-10-16T01:18:40.334Z,17.03
2018-10-16T01:19:40.356Z,16.90
2018-10-16T01:20:40.379Z,16.99
2018-10-16T01:21:40.394Z,16.93
2018-10-16T01:22:40.414Z,16.73
2018-10-16T01:23:40.440Z,16.71
2018-10-16T01:24:40.467Z,16.58
2018-10-16T01:25:40.480Z,16.62
2018-10-16T01:26:40.498Z,16.74
2018-10-16T01:27:40.537Z,16.80
2018-10-16T01:28:40.544Z,16.71
2018-10-16T01:29:40.567Z,16.71
2018-10-16T01:30:40.672Z,16.68
2018-10-16T01:31:40.611Z,16.93
2018-10-16T01:32:40.636Z,16.95
2018-10-16T01:33:40.644Z,16.99
2018-10-16T01:34:40.686Z,17.22
2018-10-16T01:35:40.686Z,17.32
2018-10-16T01:36:40.705Z,17.28
2018-10-16T01:37:40.724Z,17.20
2018-10-16T01:38:40.758Z,16.78
2018-10-16T01:39:40.774Z,16.92
2018-10-16T01:40:40.796Z,17.00
2018-10-16T01:41:40.877Z,16.65
2018-10-16T01:42:40.835Z,16.75
2018-10-16T01:43:40.861Z,16.93
2018-10-16T01:44:40.882Z,16.89
2018-10-16T01:45:40.900Z,16.70
2018-10-16T01:46:40.921Z,16.86
2018-10-16T01:47:40.944Z,16.59
2018-10-16T01:48:40.969Z,16.49
2018-10-16T01:49:40.991Z,16.53
2018-10-16T01:50:40.998Z,16.68
2018-10-16T01:51:41.018Z,16.38
2018-10-16T01:52:41.046Z,16.37
2018-10-16T01:54:41.080Z,16.38
2018-10-16T01:55:41.100Z,16.26
2018-10-16T01:56:41.152Z,16.00
2018-10-16T01:57:41.150Z,15.84
2018-10-16T01:58:41.179Z,15.63
2018-10-16T01:59:41.201Z,15.78
2018-10-16T02:00:41.213Z,15.74
2018-10-16T02:01:41.235Z,15.79
2018-10-16T02:02:41.305Z,15.72
2018-10-16T02:03:41.275Z,15.70
2018-10-16T02:04:41.297Z,15.78
2018-10-16T02:05:41.410Z,15.63
2018-10-16T02:06:41.351Z,15.75
2018-10-16T02:07:41.361Z,15.61
2018-10-16T02:08:41.381Z,15.49
2018-10-16T02:09:41.394Z,15.49
2018-10-16T02:10:41.415Z,15.64
2018-10-16T02:11:41.442Z,15.39
2018-10-16T02:12:41.462Z,15.59
2018-10-16T02:13:41.484Z,15.92
2018-10-16T02:14:41.535Z,15.97
2018-10-16T02:15:41.530Z,15.82
2018-10-16T02:16:41.538Z,15.70
2018-10-16T02:17:41.570Z,15.72
2018-10-16T02:18:41.586Z,15.97
2018-10-16T02:19:41.606Z,15.82
2018-10-16T02:20:41.625Z,15.82
2018-10-16T02:21:41.652Z,15.49
2018-10-16T02:22:41.667Z,15.41
2018-10-16T02:23:41.692Z,15.63
2018-10-16T02:24:41.708Z,15.57
2018-10-16T02:25:41.746Z,15.31
2018-10-16T02:26:41.754Z,15.49
2018-10-16T02:27:41.769Z,15.46
2018-10-16T02:28:41.808Z,15.67
2018-10-16T02:29:41.861Z,15.94
2018-10-16T02:30:41.834Z,16.16
2018-10-16T02:31:41.850Z,15.72
2018-10-16T02:32:41.899Z,15.42
2018-10-16T02:33:41.903Z,15.82
2018-10-16T02:34:41.917Z,15.75
2018-10-16T02:35:41.929Z,15.82
2018-10-16T02:36:41.966Z,15.81
2018-10-16T02:37:41.990Z,15.81
2018-10-16T02:38:41.999Z,15.92
2018-10-16T02:39:42.022Z,15.93
2018-10-16T02:40:42.036Z,16.04
2018-10-16T02:41:42.066Z,15.97
2018-10-16T02:42:42.086Z,15.93
2018-10-16T02:43:42.099Z,15.97
2018-10-16T02:44:42.189Z,15.93
2018-10-16T02:45:42.131Z,16.04
2018-10-16T02:46:42.156Z,16.06
2018-10-16T02:47:42.179Z,15.82
2018-10-16T02:48:42.201Z,15.61
2018-10-16T02:49:42.223Z,15.72
2018-10-16T02:50:42.239Z,15.78
2018-10-16T02:51:42.261Z,15.97
2018-10-16T02:52:42.289Z,16.01
2018-10-16T02:53:42.306Z,15.89
2018-10-16T02:54:42.323Z,15.84
2018-10-16T02:55:42.346Z,15.61
2018-10-16T02:56:42.362Z,15.61
2018-10-16T02:57:42.386Z,15.52
2018-10-16T02:58:42.412Z,15.59
2018-10-16T02:59:42.433Z,15.54
2018-10-16T03:00:42.467Z,15.15
2018-10-16T03:01:42.475Z,15.27
2018-10-16T03:02:42.494Z,15.19
2018-10-16T03:03:42.511Z,15.01
2018-10-16T03:04:42.528Z,15.02
2018-10-16T03:05:42.543Z,14.88
2018-10-16T03:06:42.577Z,14.80
2018-10-16T03:07:42.592Z,14.71
2018-10-16T03:08:42.753Z,14.88
2018-10-16T03:09:42.645Z,14.86
2018-10-16T03:10:42.657Z,14.83
2018-10-16T03:11:42.672Z,14.74
2018-10-16T03:12:42.685Z,14.80
2018-10-16T03:13:42.707Z,14.84
2018-10-16T03:14:42.732Z,15.03
2018-10-16T03:15:42.749Z,15.23
2018-10-16T03:16:42.780Z,15.45
2018-10-16T03:17:42.792Z,15.61
2018-10-16T03:18:42.816Z,15.70
2018-10-16T03:19:42.842Z,15.42
2018-10-16T03:20:42.997Z,15.52
2018-10-16T03:21:42.871Z,15.57
2018-10-16T03:22:42.890Z,15.67
2018-10-16T03:23:42.915Z,15.93
2018-10-16T03:24:42.930Z,15.60
2018-10-16T03:25:42.958Z,15.35
2018-10-16T03:26:42.970Z,15.49
2018-10-16T03:27:42.993Z,15.52
2018-10-16T03:28:43.014Z,15.38
2018-10-16T03:29:43.051Z,15.08
2018-10-16T03:30:43.058Z,15.02
2018-10-16T03:31:43.076Z,14.91
2018-10-16T03:32:43.091Z,14.87
2018-10-16T03:33:43.114Z,15.03
2018-10-16T03:34:43.135Z,15.64
2018-10-16T03:35:43.152Z,15.66
2018-10-16T03:36:43.192Z,15.74
2018-10-16T03:37:43.199Z,15.85
2018-10-16T03:38:43.217Z,15.64
2018-10-16T03:39:43.246Z,15.24
2018-10-16T03:40:43.257Z,15.27
2018-10-16T03:41:43.282Z,15.02
2018-10-16T03:42:43.316Z,15.36
2018-10-16T03:43:43.314Z,15.51
2018-10-16T03:44:43.337Z,15.38
2018-10-16T03:45:43.357Z,15.48
2018-10-16T03:46:43.392Z,15.68
2018-10-16T03:47:43.512Z,15.63
2018-10-16T03:48:43.424Z,15.54
2018-10-16T03:49:43.443Z,15.70
2018-10-16T03:50:43.461Z,15.68
2018-10-16T03:51:43.475Z,15.56
2018-10-16T03:52:43.502Z,15.36
2018-10-16T03:53:43.549Z,15.13
2018-10-16T03:54:43.538Z,15.35
2018-10-16T03:55:43.560Z,15.43
2018-10-16T03:56:43.580Z,15.38
2018-10-16T03:57:43.596Z,15.48
2018-10-16T03:58:43.705Z,15.24
2018-10-16T03:59:43.646Z,15.38
2018-10-16T04:00:43.679Z,15.13
2018-10-16T04:01:43.681Z,14.98
2018-10-16T04:02:43.699Z,15.33
2018-10-16T04:03:43.718Z,15.09
2018-10-16T04:04:43.740Z,15.36
2018-10-16T04:05:43.761Z,15.54
2018-10-16T04:06:43.803Z,15.75
2018-10-16T04:07:43.803Z,15.57
2018-10-16T04:08:43.821Z,15.36
2018-10-16T04:09:43.857Z,15.27
2018-10-16T04:10:43.856Z,15.42
2018-10-16T04:11:43.888Z,15.46
2018-10-16T04:12:43.906Z,15.43
2018-10-16T04:13:43.927Z,15.28
2018-10-16T04:14:43.940Z,15.27
2018-10-16T04:15:43.961Z,15.20
2018-10-16T04:16:43.988Z,15.01
2018-10-16T04:17:43.994Z,14.88
2018-10-16T04:18:44.027Z,14.87
2018-10-16T04:19:44.036Z,15.05
2018-10-16T04:20:44.073Z,15.06
2018-10-16T04:21:44.083Z,15.54
2018-10-16T04:22:44.115Z,15.66
2018-10-16T04:23:44.130Z,15.86
2018-10-16T04:24:44.174Z,15.67
2018-10-16T04:25:44.162Z,15.64
2018-10-16T04:26:44.179Z,15.42
2018-10-16T04:27:44.200Z,15.66
2018-10-16T04:28:44.258Z,15.36
2018-10-16T04:29:44.246Z,15.08
2018-10-16T04:30:44.274Z,14.72
2018-10-16T04:31:44.283Z,14.61
2018-10-16T04:32:44.296Z,14.52
2018-10-16T04:33:44.336Z,14.42
2018-10-16T04:34:44.348Z,14.25
2018-10-16T04:35:44.368Z,14.72
2018-10-16T04:36:44.377Z,15.09
2018-10-16T04:37:44.403Z,14.95
2018-10-16T04:38:44.431Z,15.13
2018-10-16T04:39:44.469Z,15.06
2018-10-16T04:40:44.458Z,15.19
2018-10-16T04:41:44.558Z,15.17
2018-10-16T04:42:44.509Z,15.08
2018-10-16T04:43:44.582Z,15.33
2018-10-16T04:44:44.538Z,14.93
2018-10-16T04:45:44.554Z,14.94
2018-10-16T04:46:44.586Z,15.05
2018-10-16T04:47:44.603Z,14.71
2018-10-16T04:48:44.628Z,14.75
2018-10-16T04:49:44.635Z,15.01
2018-10-16T04:50:44.707Z,15.21
2018-10-16T04:51:44.675Z,15.24
2018-10-16T04:52:44.694Z,15.24
2018-10-16T04:53:44.718Z,15.17
2018-10-16T04:54:44.739Z,15.17
2018-10-16T04:55:44.752Z,15.06
2018-10-16T04:56:44.776Z,15.28
2018-10-16T04:57:44.796Z,15.08
2018-10-16T04:58:44.815Z,15.17
2018-10-16T04:59:44.837Z,15.06
2018-10-16T05:00:44.865Z,14.94
2018-10-16T05:01:44.869Z,15.09
2018-10-16T05:02:44.896Z,14.91
2018-10-16T05:03:44.981Z,14.81
2018-10-16T05:04:44.940Z,14.90
2018-10-16T05:05:44.947Z,14.91
2018-10-16T05:06:44.976Z,15.24
2018-10-16T05:07:45.001Z,15.06
2018-10-16T05:08:45.011Z,15.09
2018-10-16T05:09:45.029Z,15.35
2018-10-16T05:10:45.048Z,15.52
2018-10-16T05:11:45.079Z,15.54
2018-10-16T05:12:45.085Z,15.66
2018-10-16T05:13:45.113Z,15.70
2018-10-16T05:14:45.134Z,15.67
2018-10-16T05:15:45.157Z,15.67
2018-10-16T05:16:45.195Z,15.78
2018-10-16T05:17:45.205Z,15.81
2018-10-16T05:18:45.253Z,15.76
2018-10-16T05:19:45.230Z,15.61
2018-10-16T05:20:45.256Z,15.66
2018-10-16T05:21:45.260Z,15.56
2018-10-16T05:22:45.297Z,15.61
2018-10-16T05:23:45.322Z,15.42
2018-10-16T05:24:45.323Z,15.24
2018-10-16T05:25:45.346Z,15.11
2018-10-16T05:26:45.398Z,15.03
2018-10-16T05:27:45.385Z,14.99
2018-10-16T05:28:45.406Z,14.75
2018-10-16T05:29:45.428Z,14.86
2018-10-16T05:30:45.450Z,15.13
2018-10-16T05:31:45.492Z,15.05
2018-10-16T05:32:45.483Z,15.01
2018-10-16T05:33:45.509Z,14.84
2018-10-16T05:34:45.521Z,14.95
2018-10-16T05:35:45.543Z,15.01
2018-10-16T05:36:45.571Z,15.01
2018-10-16T05:37:45.583Z,15.20
2018-10-16T05:38:45.627Z,15.56
2018-10-16T05:39:45.630Z,15.49
2018-10-16T05:40:45.643Z,15.67
2018-10-16T05:41:45.656Z,15.39
2018-10-16T05:42:45.683Z,15.57
2018-10-16T05:43:45.713Z,15.45
2018-10-16T05:44:45.726Z,15.39
2018-10-16T05:45:45.748Z,15.33
2018-10-16T05:46:45.763Z,15.45
2018-10-16T05:47:45.783Z,15.48
2018-10-16T05:48:45.803Z,15.49
2018-10-16T05:49:45.843Z,15.33
2018-10-16T05:50:45.857Z,15.31
2018-10-16T05:51:45.858Z,15.39
2018-10-16T05:52:45.915Z,15.27
2018-10-16T05:53:45.903Z,15.03
2018-10-16T05:54:45.924Z,14.91
2018-10-16T05:55:46.084Z,15.12
2018-10-16T05:56:45.964Z,14.87
2018-10-16T05:57:46.002Z,14.84
2018-10-16T05:58:45.996Z,14.94
2018-10-16T05:59:46.029Z,15.02
2018-10-16T06:00:46.036Z,15.02
2018-10-16T06:01:46.054Z,15.08
2018-10-16T06:02:46.082Z,14.90
2018-10-16T06:03:46.093Z,14.87
2018-10-16T06:04:46.114Z,14.74
2018-10-16T06:05:46.188Z,14.86
2018-10-16T06:06:46.144Z,14.80
2018-10-16T06:07:46.201Z,14.80
2018-10-16T06:08:46.194Z,14.78
2018-10-16T06:09:46.209Z,14.80
2018-10-16T06:10:46.334Z,14.88
2018-10-16T06:11:46.247Z,14.91
2018-10-16T06:12:46.267Z,15.05
2018-10-16T06:13:46.312Z,15.03
2018-10-16T06:14:46.308Z,15.30
2018-10-16T06:15:46.377Z,15.27
2018-10-16T06:16:46.350Z,15.08
2018-10-16T06:17:46.380Z,14.88
2018-10-16T06:18:46.401Z,14.94
2018-10-16T06:19:46.403Z,15.11
2018-10-16T06:20:46.440Z,15.23
2018-10-16T06:21:46.447Z,15.24
2018-10-16T06:22:46.470Z,15.20
2018-10-16T06:23:46.569Z,15.30
2018-10-16T06:24:46.503Z,15.35
2018-10-16T06:25:46.523Z,15.33
2018-10-16T06:26:46.540Z,15.39
2018-10-16T06:27:46.619Z,15.36
2018-10-16T06:28:46.580Z,15.48
2018-10-16T06:29:46.607Z,15.41
2018-10-16T06:30:46.624Z,15.52
2018-10-16T06:31:46.649Z,15.51
2018-10-16T06:32:46.653Z,15.48
2018-10-16T06:33:46.679Z,15.48
2018-10-16T06:35:46.722Z,15.39
2018-10-16T06:36:46.728Z,15.33
2018-10-16T06:37:46.758Z,15.11
2018-10-16T06:38:46.778Z,15.05
2018-10-16T06:39:46.806Z,15.28
2018-10-16T06:40:46.905Z,15.42
2018-10-16T06:41:46.880Z,15.56
2018-10-16T06:42:46.851Z,15.57
2018-10-16T06:43:46.896Z,15.61
2018-10-16T06:44:46.886Z,15.56
2018-10-16T06:45:46.904Z,15.39
2018-10-16T06:46:46.929Z,15.23
2018-10-16T06:47:47.055Z,15.21
2018-10-16T06:48:47.318Z,15.24
2018-10-16T06:49:46.988Z,15.39
2018-10-16T06:50:47.004Z,15.54
2018-10-16T06:51:47.026Z,15.43
2018-10-16T06:52:47.053Z,15.54
2018-10-16T06:53:47.080Z,15.57
2018-10-16T06:54:47.183Z,15.67
2018-10-16T06:55:47.116Z,15.60
2018-10-16T06:56:47.124Z,15.63
2018-10-16T06:57:47.141Z,15.81
2018-10-16T06:58:47.155Z,15.72
2018-10-16T06:59:47.185Z,15.86
2018-10-16T07:00:47.196Z,15.61
2018-10-16T07:01:47.220Z,15.67
2018-10-16T07:02:47.243Z,15.66
2018-10-16T07:03:47.253Z,15.75
2018-10-16T07:04:47.280Z,15.59
2018-10-16T07:05:47.304Z,15.42
2018-10-16T07:06:47.387Z,15.52
2018-10-16T07:07:47.333Z,15.56
2018-10-16T07:08:47.355Z,15.67
2018-10-16T07:09:47.373Z,15.66
2018-10-16T07:10:47.403Z,15.61
2018-10-16T07:11:47.420Z,15.49
2018-10-16T07:12:47.426Z,15.39
2018-10-16T07:13:47.453Z,15.23
2018-10-16T07:14:47.515Z,15.43
2018-10-16T07:15:47.496Z,15.31
2018-10-16T07:16:47.512Z,15.24
2018-10-16T07:17:47.541Z,15.43
2018-10-16T07:18:47.545Z,15.28
2018-10-16T07:19:47.570Z,15.24
2018-10-16T07:20:47.596Z,15.20
2018-10-16T07:21:47.605Z,15.26
2018-10-16T07:22:47.628Z,15.48
2018-10-16T07:23:47.679Z,15.52
2018-10-16T07:24:47.684Z,15.45
2018-10-16T07:25:47.687Z,15.51
2018-10-16T07:26:47.711Z,15.41
2018-10-16T07:27:47.724Z,15.52
2018-10-16T07:28:47.756Z,15.39
2018-10-16T07:29:47.859Z,15.45
2018-10-16T07:30:47.785Z,15.48
2018-10-16T07:31:47.804Z,15.76
2018-10-16T07:32:47.825Z,15.84
2018-10-16T07:33:47.854Z,15.85
2018-10-16T07:34:47.877Z,15.78
2018-10-16T07:35:47.880Z,15.75
2018-10-16T07:36:47.908Z,15.49
2018-10-16T07:37:48.013Z,15.66
2018-10-16T07:38:48.001Z,15.57
2018-10-16T07:39:47.971Z,15.45
2018-10-16T07:40:47.983Z,15.72
2018-10-16T07:41:48.006Z,15.64
2018-10-16T07:42:48.028Z,15.79
2018-10-16T07:43:48.044Z,15.78
2018-10-16T07:44:48.062Z,15.82
2018-10-16T07:45:48.077Z,15.79
2018-10-16T07:46:48.117Z,15.93
2018-10-16T07:47:48.119Z,15.99
2018-10-16T07:48:48.133Z,15.89
2018-10-16T07:49:48.162Z,16.14
2018-10-16T07:50:48.174Z,16.23
2018-10-16T07:51:48.203Z,16.18
2018-10-16T07:52:48.230Z,16.04
2018-10-16T07:53:48.237Z,16.18
2018-10-16T07:54:48.262Z,16.09
2018-10-16T07:55:48.277Z,16.04
2018-10-16T07:56:48.313Z,16.15
2018-10-16T07:57:48.320Z,16.34
2018-10-16T07:58:48.342Z,16.53
2018-10-16T07:59:48.372Z,16.34
2018-10-16T08:00:48.389Z,16.41
2018-10-16T08:01:48.391Z,16.52
2018-10-16T08:02:48.409Z,16.68
2018-10-16T08:03:48.441Z,16.70
2018-10-16T08:04:48.460Z,16.52
2018-10-16T08:05:48.481Z,16.62
2018-10-16T08:06:48.495Z,16.56
2018-10-16T08:07:48.587Z,16.56
2018-10-16T08:08:48.534Z,16.53
2018-10-16T08:09:48.552Z,16.60
2018-10-16T08:10:48.574Z,16.56
2018-10-16T08:11:48.597Z,16.70
2018-10-16T08:12:48.613Z,16.77
2018-10-16T08:13:48.642Z,16.68
2018-10-16T08:14:48.649Z,16.73
2018-10-16T08:15:48.669Z,16.68
2018-10-16T08:16:48.699Z,16.71
2018-10-16T08:17:48.713Z,16.67
2018-10-16T08:18:48.772Z,16.60
2018-10-16T08:19:48.758Z,16.62
2018-10-16T08:20:48.773Z,16.59
2018-10-16T08:21:48.791Z,16.56
2018-10-16T08:22:48.810Z,16.59
2018-10-16T08:23:48.832Z,16.68
2018-10-16T08:24:48.855Z,16.74
2018-10-16T08:25:48.880Z,16.83
2018-10-16T08:26:48.928Z,16.70
2018-10-16T08:27:48.919Z,16.68
2018-10-16T08:28:48.935Z,16.68
2018-10-16T08:29:48.948Z,16.71
2018-10-16T08:30:48.977Z,16.71
2018-10-16T08:31:48.996Z,16.68
2018-10-16T08:32:49.015Z,16.86
2018-10-16T08:33:49.042Z,16.85
2018-10-16T08:34:49.048Z,16.92
2018-10-16T08:35:49.086Z,16.89
2018-10-16T08:36:49.251Z,16.86
2018-10-16T08:37:49.121Z,16.93
2018-10-16T08:38:49.132Z,16.93
2018-10-16T08:39:49.151Z,17.08
2018-10-16T08:40:49.169Z,16.99
2018-10-16T08:41:49.215Z,16.96
2018-10-16T08:42:49.263Z,17.13
2018-10-16T08:43:49.251Z,17.18
2018-10-16T08:44:49.254Z,17.30
2018-10-16T08:45:49.271Z,17.29
2018-10-16T08:46:49.326Z,17.44
2018-10-16T08:47:49.319Z,17.43
2018-10-16T08:48:49.342Z,17.40
2018-10-16T08:49:49.355Z,17.26
2018-10-16T08:50:49.388Z,17.11
2018-10-16T08:51:49.400Z,17.29
2018-10-16T08:52:49.425Z,17.29
2018-10-16T08:53:49.449Z,17.15
2018-10-16T08:54:49.519Z,17.15
2018-10-16T08:55:49.484Z,17.22
2018-10-16T08:56:49.510Z,17.32
2018-10-16T08:57:49.545Z,17.44
2018-10-16T08:58:49.567Z,17.40
2018-10-16T08:59:49.559Z,17.53
2018-10-16T09:00:49.585Z,17.51
2018-10-16T09:01:49.608Z,17.47
2018-10-16T09:02:49.632Z,17.57
2018-10-16T09:03:49.640Z,17.47
2018-10-16T09:04:49.671Z,17.44
2018-10-16T09:05:49.697Z,17.54
2018-10-16T09:06:49.736Z,17.59
2018-10-16T09:07:49.736Z,17.64
2018-10-16T09:08:49.762Z,17.69
2018-10-16T09:09:49.788Z,18.13
2018-10-16T09:10:49.792Z,18.49
2018-10-16T09:11:49.807Z,18.59
2018-10-16T09:12:49.838Z,18.55
2018-10-16T09:13:49.879Z,18.34
2018-10-16T09:14:49.876Z,18.27
2018-10-16T09:15:49.899Z,18.09
2018-10-16T09:16:49.915Z,18.03
2018-10-16T09:17:49.935Z,17.84
2018-10-16T09:18:49.959Z,17.79
2018-10-16T09:19:49.977Z,17.85
2018-10-16T09:20:49.996Z,17.84
2018-10-16T09:21:50.026Z,17.84
2018-10-16T09:22:50.047Z,17.85
2018-10-16T09:23:50.062Z,17.84
2018-10-16T09:24:50.104Z,17.89
2018-10-16T09:25:50.113Z,18.00
2018-10-16T09:26:50.124Z,17.84
2018-10-16T09:27:50.168Z,17.94
2018-10-16T09:28:50.163Z,18.00
2018-10-16T09:29:50.193Z,17.99
2018-10-16T09:30:50.321Z,18.06
2018-10-16T09:31:50.242Z,17.97
2018-10-16T09:32:50.274Z,18.42
2018-10-16T09:33:50.268Z,19.48
2018-10-16T09:34:50.292Z,20.77
2018-10-16T09:35:50.335Z,22.04
2018-10-16T09:36:50.331Z,22.84
2018-10-16T09:37:50.465Z,23.38
2018-10-16T09:38:50.395Z,22.75
2018-10-16T09:39:50.396Z,22.31
2018-10-16T09:40:50.427Z,21.76
2018-10-16T09:41:50.441Z,20.64
2018-10-16T09:42:50.496Z,20.03
2018-10-16T09:43:50.488Z,19.79
2018-10-16T09:44:50.504Z,19.51
2018-10-16T09:45:50.652Z,19.24
2018-10-16T09:46:50.547Z,19.23
2018-10-16T09:47:50.582Z,19.21
2018-10-16T09:48:50.590Z,19.10
2018-10-16T09:49:50.606Z,18.94
2018-10-16T09:50:50.629Z,18.84
2018-10-16T09:51:50.658Z,18.84
2018-10-16T09:52:50.679Z,18.79
2018-10-16T09:53:50.695Z,18.73
2018-10-16T09:54:50.720Z,18.74
2018-10-16T09:55:50.747Z,18.62
2018-10-16T09:56:50.762Z,18.67
2018-10-16T09:57:50.818Z,18.64
2018-10-16T09:58:50.799Z,18.79
2018-10-16T09:59:50.825Z,18.62
2018-10-16T10:00:50.888Z,18.64
2018-10-16T10:01:50.868Z,18.67
2018-10-16T10:02:50.894Z,18.70
2018-10-16T10:03:50.916Z,18.62
2018-10-16T10:04:50.958Z,18.74
2018-10-16T10:05:50.964Z,18.87
2018-10-16T10:06:50.975Z,18.90
2018-10-16T10:07:50.997Z,18.84
2018-10-16T10:08:51.023Z,18.87
2018-10-16T10:09:51.033Z,18.94
2018-10-16T10:10:51.096Z,18.95
2018-10-16T10:11:51.074Z,18.91
2018-10-16T10:12:51.104Z,18.74
2018-10-16T10:13:51.155Z,18.84
2018-10-16T10:14:51.141Z,18.77
2018-10-16T10:15:51.189Z,18.79
2018-10-16T10:16:51.193Z,18.77
2018-10-16T10:17:51.205Z,18.70
2018-10-16T10:18:51.248Z,18.79
2018-10-16T10:19:51.256Z,18.70
2018-10-16T10:20:51.291Z,18.76
2018-10-16T10:21:51.296Z,18.77
2018-10-16T10:22:51.314Z,18.65
2018-10-16T10:23:51.341Z,18.82
2018-10-16T10:24:51.427Z,18.80
2018-10-16T10:25:51.392Z,18.84
2018-10-16T10:26:51.407Z,18.68
2018-10-16T10:27:51.424Z,18.82
2018-10-16T10:28:51.441Z,18.80
2018-10-16T10:29:51.549Z,18.83
2018-10-16T10:30:51.501Z,18.83
2018-10-16T10:31:51.516Z,18.87
2018-10-16T10:32:51.538Z,18.86
2018-10-16T10:33:51.551Z,18.86
2018-10-16T10:34:51.600Z,18.97
2018-10-16T10:35:51.642Z,18.97
2018-10-16T10:36:51.626Z,19.05
2018-10-16T10:37:51.644Z,19.05
2018-10-16T10:38:51.661Z,19.06
2018-10-16T10:39:51.687Z,19.13
2018-10-16T10:40:51.701Z,19.20
2018-10-16T10:41:51.740Z,19.18
2018-10-16T10:42:51.752Z,19.14
2018-10-16T10:43:51.773Z,19.25
2018-10-16T10:44:51.793Z,19.25
2018-10-16T10:45:51.821Z,19.32
2018-10-16T10:46:51.837Z,19.47
2018-10-16T10:47:51.858Z,19.46
2018-10-16T10:48:51.928Z,19.38
2018-10-16T10:49:51.964Z,19.47
2018-10-16T10:50:52.081Z,19.43
2018-10-16T10:51:51.946Z,19.55
2018-10-16T10:52:51.990Z,19.65
2018-10-16T10:53:51.993Z,19.60
2018-10-16T10:54:52.027Z,19.61
2018-10-16T10:55:52.041Z,19.66
2018-10-16T10:56:52.173Z,19.78
2018-10-16T10:57:52.081Z,19.75
2018-10-16T10:58:52.107Z,19.90
2018-10-16T10:59:52.171Z,19.93
2018-10-16T11:00:52.163Z,20.03
2018-10-16T11:01:52.177Z,20.06
2018-10-16T11:02:52.249Z,20.08
2018-10-16T11:03:52.241Z,20.12
2018-10-16T11:04:52.260Z,20.13
2018-10-16T11:05:52.277Z,20.23
2018-10-16T11:06:52.305Z,20.31
2018-10-16T11:07:52.331Z,20.54
2018-10-16T11:08:52.377Z,20.54
2018-10-16T11:09:52.382Z,20.51
2018-10-16T11:10:52.468Z,20.65
2018-10-16T11:11:52.456Z,20.64
2018-10-16T11:12:52.515Z,20.72
2018-10-16T11:13:52.484Z,20.79
2018-10-16T11:14:52.523Z,20.91
2018-10-16T11:15:52.541Z,21.01
2018-10-16T11:16:52.565Z,21.23
2018-10-16T11:17:52.591Z,21.34
2018-10-16T11:18:52.629Z,21.24
2018-10-16T11:19:52.650Z,21.36
2018-10-16T11:20:52.677Z,21.60
2018-10-16T11:21:52.713Z,21.67
2018-10-16T11:22:52.734Z,21.75
2018-10-16T11:23:52.768Z,21.75
2018-10-16T11:24:52.778Z,21.76
2018-10-16T11:25:52.820Z,21.82
2018-10-16T11:26:52.848Z,21.91
2018-10-16T11:27:52.861Z,21.92
2018-10-16T11:28:52.902Z,21.74
2018-10-16T11:29:52.928Z,21.76
2018-10-16T11:30:52.944Z,22.49
2018-10-16T11:31:52.969Z,23.02
2018-10-16T11:32:53.024Z,23.46
2018-10-16T11:33:53.022Z,24.13
2018-10-16T11:34:53.090Z,24.76
2018-10-16T11:35:53.071Z,24.92
2018-10-16T11:36:53.098Z,24.38
2018-10-16T11:37:53.120Z,23.43
2018-10-16T11:38:53.150Z,22.78
2018-10-16T11:39:53.180Z,22.37
2018-10-16T11:40:53.203Z,22.14
2018-10-16T11:41:53.223Z,22.07
2018-10-16T11:42:53.258Z,22.12
2018-10-16T11:43:53.281Z,22.01
2018-10-16T11:44:53.340Z,21.94
2018-10-16T11:45:53.420Z,21.95
2018-10-16T11:46:53.374Z,21.85
2018-10-16T11:47:53.387Z,21.76
2018-10-16T11:48:53.410Z,21.67
2018-10-16T11:49:53.437Z,21.64
2018-10-16T11:50:53.463Z,21.61
2018-10-16T11:51:53.478Z,21.64
2018-10-16T11:52:53.510Z,21.60
2018-10-16T11:53:53.522Z,21.59
2018-10-16T11:54:53.563Z,21.48
2018-10-16T11:55:53.602Z,21.48
2018-10-16T11:56:53.611Z,21.48
2018-10-16T11:57:53.645Z,21.46
2018-10-16T11:58:53.662Z,21.56
2018-10-16T11:59:53.690Z,21.56
2018-10-16T12:00:53.701Z,21.59
2018-10-16T12:01:53.773Z,21.50
2018-10-16T12:02:53.752Z,21.61
2018-10-16T12:03:53.790Z,21.57
2018-10-16T12:04:53.821Z,21.61
2018-10-16T12:05:53.840Z,21.66
2018-10-16T12:06:53.904Z,21.61
2018-10-16T12:07:53.919Z,21.71
2018-10-16T12:08:53.900Z,21.79
2018-10-16T12:09:53.962Z,21.76
2018-10-16T12:10:53.950Z,21.75
2018-10-16T12:11:53.993Z,21.88
2018-10-16T12:12:54.077Z,21.82
2018-10-16T12:13:54.031Z,21.79
2018-10-16T12:14:54.051Z,21.85
2018-10-16T12:15:54.072Z,21.81
2018-10-16T12:16:54.150Z,21.79
2018-10-16T12:17:54.123Z,21.85
2018-10-16T12:18:54.224Z,21.82
2018-10-16T12:19:54.207Z,21.83
2018-10-16T12:20:54.255Z,21.92
2018-10-16T12:21:54.256Z,21.81
2018-10-16T12:22:54.243Z,21.92
2018-10-16T12:23:54.280Z,21.85
2018-10-16T12:24:54.352Z,21.95
2018-10-16T12:25:54.324Z,21.97
2018-10-16T12:26:54.378Z,22.02
2018-10-16T12:27:54.381Z,22.04
2018-10-16T12:28:54.451Z,22.32
2018-10-16T12:29:54.431Z,22.16
2018-10-16T12:30:54.494Z,22.16
2018-10-16T12:31:54.471Z,22.19
2018-10-16T12:32:54.507Z,22.20
2018-10-16T12:33:54.532Z,22.20
2018-10-16T12:35:54.573Z,22.29
2018-10-16T12:36:54.641Z,22.31
2018-10-16T12:37:54.617Z,22.13
2018-10-16T12:38:54.678Z,22.19
2018-10-16T12:39:54.688Z,22.25
2018-10-16T12:40:54.742Z,22.25
2018-10-16T12:41:54.768Z,22.23
2018-10-16T12:42:54.944Z,22.22
2018-10-16T12:43:54.856Z,22.34
2018-10-16T12:44:54.805Z,22.43
2018-10-16T12:45:54.904Z,22.44
2018-10-16T12:46:54.882Z,22.37
2018-10-16T12:47:54.907Z,22.28
2018-10-16T12:48:54.907Z,22.25
2018-10-16T12:49:54.931Z,22.22
2018-10-16T12:50:54.970Z,22.16
2018-10-16T12:51:54.982Z,22.22
2018-10-16T12:52:55.060Z,22.31
2018-10-16T12:53:55.048Z,22.25
2018-10-16T12:54:55.069Z,22.28
2018-10-16T12:55:55.137Z,22.16
2018-10-16T12:56:55.218Z,22.13